sensor_id;sensor_type;location;lat;lon;timestamp;P1;durP1;ratioP1;P2;durP2;ratioP2
78818;SDS011;68166;55.090;37.460;2023-05-02T00:01:39;0.90;;;0.60;;
78818;SDS011;68166;55.090;37.460;2023-05-02T00:06:41;0.00;;;0.00;;
78818;SDS011;68166;55.090;37.460;2023-05-02T00:11:46;0.17;;;0.17;;
78818;SDS011;68166;55.090;37.460;2023-05-02T00:16:48;0.00;;;0.00;;
78818;SDS011;68166;55.090;37.460;2023-05-02T00:21:52;0.28;;;0.22;;
78818;SDS011;68166;55.090;37.460;2023-05-02T00:26:54;0.80;;;0.80;;
78818;SDS011;68166;55.090;37.460;2023-05-02T00:31:56;0.43;;;0.20;;
78818;SDS011;68166;55.090;37.460;2023-05-02T00:36:58;0.05;;;0.05;;
78818;SDS011;68166;55.090;37.460;2023-05-02T00:42:00;0.08;;;0.08;;
78818;SDS011;68166;55.090;37.460;2023-05-02T00:47:06;0.15;;;0.10;;
78818;SDS011;68166;55.090;37.460;2023-05-02T00:52:08;0.90;;;0.63;;
78818;SDS011;68166;55.090;37.460;2023-05-02T00:57:10;0.57;;;0.32;;
78818;SDS011;68166;55.090;37.460;2023-05-02T01:07:56;0.00;;;0.00;;
78818;SDS011;68166;55.090;37.460;2023-05-02T01:13:29;3.85;;;0.38;;
78818;SDS011;68166;55.090;37.460;2023-05-02T01:18:34;0.08;;;0.00;;
78818;SDS011;68166;55.090;37.460;2023-05-02T01:29:06;0.10;;;0.00;;
78818;SDS011;68166;55.090;37.460;2023-05-02T01:34:09;0.10;;;0.00;;
78818;SDS011;68166;55.090;37.460;2023-05-02T01:39:12;0.93;;;0.73;;
78818;SDS011;68166;55.090;37.460;2023-05-02T01:44:17;0.00;;;0.00;;
78818;SDS011;68166;55.090;37.460;2023-05-02T01:49:22;0.00;;;0.00;;
78818;SDS011;68166;55.090;37.460;2023-05-02T01:54:26;0.50;;;0.30;;
78818;SDS011;68166;55.090;37.460;2023-05-02T01:59:28;0.30;;;0.15;;
78818;SDS011;68166;55.090;37.460;2023-05-02T02:04:31;1.45;;;0.45;;
78818;SDS011;68166;55.090;37.460;2023-05-02T02:09:33;1.30;;;0.60;;
78818;SDS011;68166;55.090;37.460;2023-05-02T02:14:36;0.60;;;0.20;;
78818;SDS011;68166;55.090;37.460;2023-05-02T02:19:40;0.17;;;0.10;;
78818;SDS011;68166;55.090;37.460;2023-05-02T02:24:42;0.22;;;0.13;;
78818;SDS011;68166;55.090;37.460;2023-05-02T02:29:44;1.30;;;0.75;;
78818;SDS011;68166;55.090;37.460;2023-05-02T02:34:46;1.75;;;0.80;;
78818;SDS011;68166;55.090;37.460;2023-05-02T02:40:03;0.85;;;0.77;;
78818;SDS011;68166;55.090;37.460;2023-05-02T02:50:30;0.25;;;0.15;;
78818;SDS011;68166;55.090;37.460;2023-05-02T02:55:47;0.38;;;0.28;;
78818;SDS011;68166;55.090;37.460;2023-05-02T03:01:02;0.57;;;0.35;;
78818;SDS011;68166;55.090;37.460;2023-05-02T03:06:05;0.15;;;0.10;;
78818;SDS011;68166;55.090;37.460;2023-05-02T03:11:07;1.50;;;0.90;;
78818;SDS011;68166;55.090;37.460;2023-05-02T03:21:16;1.08;;;0.43;;
78818;SDS011;68166;55.090;37.460;2023-05-02T03:26:18;0.38;;;0.22;;
78818;SDS011;68166;55.090;37.460;2023-05-02T03:31:21;0.50;;;0.30;;
78818;SDS011;68166;55.090;37.460;2023-05-02T03:36:23;1.17;;;0.38;;
78818;SDS011;68166;55.090;37.460;2023-05-02T03:46:27;2.28;;;0.40;;
78818;SDS011;68166;55.090;37.460;2023-05-02T03:51:29;0.43;;;0.30;;
78818;SDS011;68166;55.090;37.460;2023-05-02T03:56:30;1.05;;;0.43;;
78818;SDS011;68166;55.090;37.460;2023-05-02T04:01:32;0.50;;;0.30;;
78818;SDS011;68166;55.090;37.460;2023-05-02T04:06:34;0.70;;;0.60;;
78818;SDS011;68166;55.090;37.460;2023-05-02T04:11:40;0.10;;;0.00;;
78818;SDS011;68166;55.090;37.460;2023-05-02T04:16:46;2.05;;;1.13;;
78818;SDS011;68166;55.090;37.460;2023-05-02T04:21:49;0.32;;;0.20;;
78818;SDS011;68166;55.090;37.460;2023-05-02T04:26:51;0.40;;;0.30;;
78818;SDS011;68166;55.090;37.460;2023-05-02T04:31:53;0.93;;;0.43;;
78818;SDS011;68166;55.090;37.460;2023-05-02T04:41:56;0.52;;;0.30;;
78818;SDS011;68166;55.090;37.460;2023-05-02T04:46:58;0.15;;;0.03;;
78818;SDS011;68166;55.090;37.460;2023-05-02T04:57:02;0.30;;;0.25;;
78818;SDS011;68166;55.090;37.460;2023-05-02T05:02:06;0.93;;;0.50;;
78818;SDS011;68166;55.090;37.460;2023-05-02T05:07:12;1.02;;;0.55;;
78818;SDS011;68166;55.090;37.460;2023-05-02T05:12:14;0.60;;;0.30;;
78818;SDS011;68166;55.090;37.460;2023-05-02T05:17:16;0.52;;;0.13;;
78818;SDS011;68166;55.090;37.460;2023-05-02T05:22:18;3.00;;;0.40;;
78818;SDS011;68166;55.090;37.460;2023-05-02T05:27:20;0.40;;;0.10;;
78818;SDS011;68166;55.090;37.460;2023-05-02T05:32:22;0.45;;;0.35;;
78818;SDS011;68166;55.090;37.460;2023-05-02T05:37:24;0.95;;;0.35;;
78818;SDS011;68166;55.090;37.460;2023-05-02T05:42:26;0.40;;;0.10;;
78818;SDS011;68166;55.090;37.460;2023-05-02T05:47:28;0.55;;;0.15;;
78818;SDS011;68166;55.090;37.460;2023-05-02T05:52:30;0.20;;;0.00;;
78818;SDS011;68166;55.090;37.460;2023-05-02T05:57:32;2.05;;;0.77;;
78818;SDS011;68166;55.090;37.460;2023-05-02T06:02:34;0.98;;;0.30;;
78818;SDS011;68166;55.090;37.460;2023-05-02T06:07:36;1.55;;;0.43;;
78818;SDS011;68166;55.090;37.460;2023-05-02T06:12:37;0.52;;;0.15;;
78818;SDS011;68166;55.090;37.460;2023-05-02T06:17:39;0.40;;;0.20;;
78818;SDS011;68166;55.090;37.460;2023-05-02T06:22:41;0.55;;;0.20;;
78818;SDS011;68166;55.090;37.460;2023-05-02T06:27:43;0.73;;;0.28;;
78818;SDS011;68166;55.090;37.460;2023-05-02T06:32:45;0.15;;;0.05;;
78818;SDS011;68166;55.090;37.460;2023-05-02T06:37:48;1.15;;;0.25;;
78818;SDS011;68166;55.090;37.460;2023-05-02T06:42:50;0.82;;;0.35;;
78818;SDS011;68166;55.090;37.460;2023-05-02T06:47:51;0.43;;;0.20;;
78818;SDS011;68166;55.090;37.460;2023-05-02T06:52:54;0.47;;;0.10;;
78818;SDS011;68166;55.090;37.460;2023-05-02T06:57:56;0.73;;;0.40;;
78818;SDS011;68166;55.090;37.460;2023-05-02T07:02:58;0.38;;;0.20;;
78818;SDS011;68166;55.090;37.460;2023-05-02T07:07:59;0.63;;;0.20;;
78818;SDS011;68166;55.090;37.460;2023-05-02T07:13:01;0.98;;;0.38;;
78818;SDS011;68166;55.090;37.460;2023-05-02T07:18:03;0.52;;;0.30;;
78818;SDS011;68166;55.090;37.460;2023-05-02T07:23:06;0.30;;;0.10;;
78818;SDS011;68166;55.090;37.460;2023-05-02T07:28:09;0.20;;;0.00;;
78818;SDS011;68166;55.090;37.460;2023-05-02T07:33:11;0.38;;;0.13;;
78818;SDS011;68166;55.090;37.460;2023-05-02T07:38:14;0.20;;;0.00;;
78818;SDS011;68166;55.090;37.460;2023-05-02T07:43:16;0.57;;;0.17;;
78818;SDS011;68166;55.090;37.460;2023-05-02T07:48:18;0.10;;;0.00;;
78818;SDS011;68166;55.090;37.460;2023-05-02T07:53:21;0.80;;;0.15;;
78818;SDS011;68166;55.090;37.460;2023-05-02T07:58:22;0.93;;;0.28;;
78818;SDS011;68166;55.090;37.460;2023-05-02T08:03:24;0.40;;;0.10;;
78818;SDS011;68166;55.090;37.460;2023-05-02T08:08:28;0.80;;;0.20;;
78818;SDS011;68166;55.090;37.460;2023-05-02T08:13:30;0.55;;;0.17;;
78818;SDS011;68166;55.090;37.460;2023-05-02T08:18:34;1.90;;;0.65;;
78818;SDS011;68166;55.090;37.460;2023-05-02T08:23:36;0.50;;;0.20;;
78818;SDS011;68166;55.090;37.460;2023-05-02T08:28:38;0.82;;;0.40;;
78818;SDS011;68166;55.090;37.460;2023-05-02T08:33:40;0.85;;;0.30;;
78818;SDS011;68166;55.090;37.460;2023-05-02T08:38:43;0.93;;;0.30;;
78818;SDS011;68166;55.090;37.460;2023-05-02T08:43:46;0.75;;;0.30;;
78818;SDS011;68166;55.090;37.460;2023-05-02T08:48:48;0.45;;;0.10;;
78818;SDS011;68166;55.090;37.460;2023-05-02T08:53:51;0.93;;;0.25;;
78818;SDS011;68166;55.090;37.460;2023-05-02T08:58:52;0.70;;;0.30;;
78818;SDS011;68166;55.090;37.460;2023-05-02T09:03:54;4.20;;;0.55;;
78818;SDS011;68166;55.090;37.460;2023-05-02T09:08:59;1.40;;;0.32;;
78818;SDS011;68166;55.090;37.460;2023-05-02T09:14:01;2.05;;;0.30;;
78818;SDS011;68166;55.090;37.460;2023-05-02T09:19:24;1.30;;;0.35;;
78818;SDS011;68166;55.090;37.460;2023-05-02T09:24:29;0.85;;;0.35;;
78818;SDS011;68166;55.090;37.460;2023-05-02T09:29:32;1.27;;;0.40;;
78818;SDS011;68166;55.090;37.460;2023-05-02T09:34:38;0.28;;;0.10;;
78818;SDS011;68166;55.090;37.460;2023-05-02T09:39:40;0.50;;;0.20;;
78818;SDS011;68166;55.090;37.460;2023-05-02T10:06:23;1.17;;;0.40;;
78818;SDS011;68166;55.090;37.460;2023-05-02T10:42:49;0.43;;;0.20;;
78818;SDS011;68166;55.090;37.460;2023-05-02T11:13:06;1.17;;;0.45;;
78818;SDS011;68166;55.090;37.460;2023-05-02T12:08:27;0.68;;;0.30;;
78818;SDS011;68166;55.090;37.460;2023-05-02T13:04:08;1.85;;;0.63;;
78818;SDS011;68166;55.090;37.460;2023-05-02T14:00:17;2.03;;;0.82;;
78818;SDS011;68166;55.090;37.460;2023-05-02T14:05:19;1.10;;;0.47;;
78818;SDS011;68166;55.090;37.460;2023-05-02T14:10:21;1.58;;;0.52;;
78818;SDS011;68166;55.090;37.460;2023-05-02T14:15:23;1.15;;;0.60;;
78818;SDS011;68166;55.090;37.460;2023-05-02T14:20:26;1.83;;;0.68;;
78818;SDS011;68166;55.090;37.460;2023-05-02T14:25:28;1.45;;;0.60;;
78818;SDS011;68166;55.090;37.460;2023-05-02T14:30:30;1.33;;;0.52;;
78818;SDS011;68166;55.090;37.460;2023-05-02T14:35:32;1.45;;;0.63;;
78818;SDS011;68166;55.090;37.460;2023-05-02T14:40:34;1.98;;;0.82;;
78818;SDS011;68166;55.090;37.460;2023-05-02T14:45:36;1.67;;;0.50;;
78818;SDS011;68166;55.090;37.460;2023-05-02T14:50:38;1.35;;;0.52;;
78818;SDS011;68166;55.090;37.460;2023-05-02T14:55:40;2.35;;;0.70;;
78818;SDS011;68166;55.090;37.460;2023-05-02T15:00:43;1.85;;;0.75;;
78818;SDS011;68166;55.090;37.460;2023-05-02T15:05:45;1.38;;;0.80;;
78818;SDS011;68166;55.090;37.460;2023-05-02T15:10:47;1.60;;;0.88;;
78818;SDS011;68166;55.090;37.460;2023-05-02T15:15:49;1.30;;;0.60;;
78818;SDS011;68166;55.090;37.460;2023-05-02T15:20:51;2.08;;;0.80;;
78818;SDS011;68166;55.090;37.460;2023-05-02T15:25:53;1.50;;;0.60;;
78818;SDS011;68166;55.090;37.460;2023-05-02T15:30:54;2.25;;;0.63;;
78818;SDS011;68166;55.090;37.460;2023-05-02T15:35:57;0.95;;;0.50;;
78818;SDS011;68166;55.090;37.460;2023-05-02T15:40:59;1.60;;;0.55;;
78818;SDS011;68166;55.090;37.460;2023-05-02T15:46:01;1.40;;;0.70;;
78818;SDS011;68166;55.090;37.460;2023-05-02T15:51:03;2.13;;;0.80;;
78818;SDS011;68166;55.090;37.460;2023-05-02T15:56:11;1.50;;;0.50;;
78818;SDS011;68166;55.090;37.460;2023-05-02T16:01:13;1.50;;;0.50;;
78818;SDS011;68166;55.090;37.460;2023-05-02T16:06:15;1.65;;;0.55;;
78818;SDS011;68166;55.090;37.460;2023-05-02T16:11:19;1.52;;;0.60;;
78818;SDS011;68166;55.090;37.460;2023-05-02T16:16:21;4.75;;;1.15;;
78818;SDS011;68166;55.090;37.460;2023-05-02T16:21:23;3.25;;;0.82;;
78818;SDS011;68166;55.090;37.460;2023-05-02T16:26:25;1.50;;;0.57;;
78818;SDS011;68166;55.090;37.460;2023-05-02T16:31:27;1.67;;;0.80;;
78818;SDS011;68166;55.090;37.460;2023-05-02T16:36:29;6.47;;;4.22;;
78818;SDS011;68166;55.090;37.460;2023-05-02T16:41:33;9.50;;;6.55;;
78818;SDS011;68166;55.090;37.460;2023-05-02T16:46:36;5.97;;;4.28;;
78818;SDS011;68166;55.090;37.460;2023-05-02T16:51:37;3.67;;;2.22;;
78818;SDS011;68166;55.090;37.460;2023-05-02T16:56:39;2.33;;;1.45;;
78818;SDS011;68166;55.090;37.460;2023-05-02T17:01:41;1.38;;;0.60;;
78818;SDS011;68166;55.090;37.460;2023-05-02T17:06:43;1.95;;;0.60;;
78818;SDS011;68166;55.090;37.460;2023-05-02T17:11:45;3.38;;;1.00;;
78818;SDS011;68166;55.090;37.460;2023-05-02T17:16:47;1.75;;;0.85;;
78818;SDS011;68166;55.090;37.460;2023-05-02T17:21:50;1.70;;;1.08;;
78818;SDS011;68166;55.090;37.460;2023-05-02T17:26:55;3.13;;;0.85;;
78818;SDS011;68166;55.090;37.460;2023-05-02T17:31:57;1.30;;;0.70;;
78818;SDS011;68166;55.090;37.460;2023-05-02T17:37:02;0.82;;;0.43;;
78818;SDS011;68166;55.090;37.460;2023-05-02T17:42:04;1.70;;;0.65;;
78818;SDS011;68166;55.090;37.460;2023-05-02T17:47:06;2.42;;;0.95;;
78818;SDS011;68166;55.090;37.460;2023-05-02T17:52:08;1.35;;;0.95;;
78818;SDS011;68166;55.090;37.460;2023-05-02T17:57:11;3.80;;;1.38;;
78818;SDS011;68166;55.090;37.460;2023-05-02T18:02:14;2.05;;;0.93;;
78818;SDS011;68166;55.090;37.460;2023-05-02T18:07:17;2.15;;;0.50;;
78818;SDS011;68166;55.090;37.460;2023-05-02T18:12:23;1.02;;;0.55;;
78818;SDS011;68166;55.090;37.460;2023-05-02T18:17:26;1.70;;;0.90;;
78818;SDS011;68166;55.090;37.460;2023-05-02T18:22:30;4.13;;;0.80;;
78818;SDS011;68166;55.090;37.460;2023-05-02T18:27:35;2.83;;;1.25;;
78818;SDS011;68166;55.090;37.460;2023-05-02T18:32:37;1.55;;;0.82;;
78818;SDS011;68166;55.090;37.460;2023-05-02T18:37:39;1.92;;;0.93;;
78818;SDS011;68166;55.090;37.460;2023-05-02T18:42:41;1.73;;;0.65;;
78818;SDS011;68166;55.090;37.460;2023-05-02T18:47:43;2.10;;;1.02;;
78818;SDS011;68166;55.090;37.460;2023-05-02T18:52:45;2.50;;;0.50;;
78818;SDS011;68166;55.090;37.460;2023-05-02T18:57:47;2.40;;;1.08;;
78818;SDS011;68166;55.090;37.460;2023-05-02T19:02:51;2.30;;;1.00;;
78818;SDS011;68166;55.090;37.460;2023-05-02T19:07:53;1.38;;;0.77;;
78818;SDS011;68166;55.090;37.460;2023-05-02T19:12:55;1.25;;;0.75;;
78818;SDS011;68166;55.090;37.460;2023-05-02T19:17:58;1.30;;;0.77;;
78818;SDS011;68166;55.090;37.460;2023-05-02T19:23:00;1.52;;;0.75;;
78818;SDS011;68166;55.090;37.460;2023-05-02T19:28:02;4.88;;;0.82;;
78818;SDS011;68166;55.090;37.460;2023-05-02T19:33:04;1.02;;;0.52;;
78818;SDS011;68166;55.090;37.460;2023-05-02T19:38:06;1.67;;;0.77;;
78818;SDS011;68166;55.090;37.460;2023-05-02T19:43:08;1.10;;;0.82;;
78818;SDS011;68166;55.090;37.460;2023-05-02T19:48:10;0.85;;;0.60;;
78818;SDS011;68166;55.090;37.460;2023-05-02T19:53:12;0.90;;;0.40;;
78818;SDS011;68166;55.090;37.460;2023-05-02T19:58:14;2.38;;;1.60;;
78818;SDS011;68166;55.090;37.460;2023-05-02T20:03:16;1.77;;;0.82;;
78818;SDS011;68166;55.090;37.460;2023-05-02T20:08:19;1.58;;;0.95;;
78818;SDS011;68166;55.090;37.460;2023-05-02T20:13:23;1.10;;;0.65;;
78818;SDS011;68166;55.090;37.460;2023-05-02T20:18:25;1.15;;;0.77;;
78818;SDS011;68166;55.090;37.460;2023-05-02T20:23:27;1.20;;;0.60;;
78818;SDS011;68166;55.090;37.460;2023-05-02T20:28:40;2.20;;;0.68;;
78818;SDS011;68166;55.090;37.460;2023-05-02T20:33:42;4.50;;;1.02;;
78818;SDS011;68166;55.090;37.460;2023-05-02T20:38:45;2.20;;;1.40;;
78818;SDS011;68166;55.090;37.460;2023-05-02T20:43:47;1.35;;;0.60;;
78818;SDS011;68166;55.090;37.460;2023-05-02T20:48:51;3.28;;;0.55;;
78818;SDS011;68166;55.090;37.460;2023-05-02T20:53:53;1.30;;;0.68;;
78818;SDS011;68166;55.090;37.460;2023-05-02T20:58:55;1.13;;;0.70;;
78818;SDS011;68166;55.090;37.460;2023-05-02T21:04:00;1.27;;;0.45;;
78818;SDS011;68166;55.090;37.460;2023-05-02T21:09:03;1.42;;;1.13;;
78818;SDS011;68166;55.090;37.460;2023-05-02T21:14:08;2.78;;;1.08;;
78818;SDS011;68166;55.090;37.460;2023-05-02T21:19:10;1.05;;;0.57;;
78818;SDS011;68166;55.090;37.460;2023-05-02T21:24:12;1.42;;;1.00;;
78818;SDS011;68166;55.090;37.460;2023-05-02T21:29:14;3.75;;;0.60;;
78818;SDS011;68166;55.090;37.460;2023-05-02T21:34:16;2.17;;;0.77;;
78818;SDS011;68166;55.090;37.460;2023-05-02T21:39:18;2.97;;;0.65;;
78818;SDS011;68166;55.090;37.460;2023-05-02T21:44:20;1.40;;;0.40;;
78818;SDS011;68166;55.090;37.460;2023-05-02T21:49:22;3.88;;;1.42;;
78818;SDS011;68166;55.090;37.460;2023-05-02T21:59:26;1.52;;;0.60;;
78818;SDS011;68166;55.090;37.460;2023-05-02T22:09:29;0.57;;;0.55;;
78818;SDS011;68166;55.090;37.460;2023-05-02T22:14:31;0.65;;;0.30;;
78818;SDS011;68166;55.090;37.460;2023-05-02T22:24:35;0.98;;;0.68;;
78818;SDS011;68166;55.090;37.460;2023-05-02T22:34:38;0.13;;;0.10;;
78818;SDS011;68166;55.090;37.460;2023-05-02T22:39:43;0.55;;;0.30;;
78818;SDS011;68166;55.090;37.460;2023-05-02T22:49:53;1.33;;;0.90;;
78818;SDS011;68166;55.090;37.460;2023-05-02T22:54:59;0.70;;;0.40;;
78818;SDS011;68166;55.090;37.460;2023-05-02T23:05:05;0.43;;;0.38;;
78818;SDS011;68166;55.090;37.460;2023-05-02T23:10:07;1.02;;;0.20;;
78818;SDS011;68166;55.090;37.460;2023-05-02T23:15:09;0.77;;;0.75;;
78818;SDS011;68166;55.090;37.460;2023-05-02T23:20:11;1.73;;;0.75;;
78818;SDS011;68166;55.090;37.460;2023-05-02T23:25:14;0.47;;;0.20;;
78818;SDS011;68166;55.090;37.460;2023-05-02T23:30:16;0.57;;;0.47;;
78818;SDS011;68166;55.090;37.460;2023-05-02T23:35:18;2.60;;;0.40;;
78818;SDS011;68166;55.090;37.460;2023-05-02T23:40:20;0.47;;;0.25;;
78818;SDS011;68166;55.090;37.460;2023-05-02T23:50:26;0.93;;;0.30;;
